Time;durP1;ratioP1;P1;durP2;ratioP2;P2;SDS_P1;SDS_P2;PMS_P1;PMS_P2;Temp;Humidity;BMP_temperature;BMP_pressure;BME280_temperature;BME280_humidity;BME280_pressure;Samples;Min_cycle;Max_cycle;Signal;HPM_P1;HPM_P2
2022/11/09 00:00:02;;;;;;;;;1.75;0.50;;;;;;;;5130363;27;8870;-78
2022/11/09 00:02:29;;;;;;;;;4.00;2.00;;;;;;;;5108649;27;8876;-77
2022/11/09 00:04:57;;;;;;;;;2.50;1.25;;;;;;;;5131443;27;8822;-78
2022/11/09 00:07:26;;;;;;;;;1.00;1.00;;;;;;;;5128250;27;8952;-78
2022/11/09 00:09:55;;;;;;;;;2.00;2.00;;;;;;;;5128812;27;8843;-78
2022/11/09 00:12:23;;;;;;;;;4.00;1.25;;;;;;;;5112335;27;8930;-78
2022/11/09 00:14:51;;;;;;;;;1.00;1.00;;;;;;;;5131360;27;9411;-78
2022/11/09 00:17:19;;;;;;;;;4.50;1.00;;;;;;;;5112004;27;8890;-78
2022/11/09 00:19:46;;;;;;;;;3.00;3.00;;;;;;;;5113147;27;8844;-78
2022/11/09 00:22:13;;;;;;;;;1.00;1.00;;;;;;;;5130521;27;9010;-78
2022/11/09 00:24:42;;;;;;;;;2.00;2.00;;;;;;;;5132579;27;8856;-79
2022/11/09 00:27:10;;;;;;;;;1.00;1.00;;;;;;;;5133188;27;8831;-79
2022/11/09 00:29:38;;;;;;;;;2.00;2.00;;;;;;;;5118738;27;8829;-79
2022/11/09 00:32:06;;;;;;;;;1.75;1.75;;;;;;;;5129481;27;8840;-78
2022/11/09 00:34:34;;;;;;;;;1.00;1.00;;;;;;;;5096443;27;8832;-79
2022/11/09 00:37:01;;;;;;;;;2.00;2.00;;;;;;;;5128526;27;8848;-78
2022/11/09 00:39:31;;;;;;;;;1.00;1.00;;;;;;;;5113317;27;8838;-78
2022/11/09 00:42:00;;;;;;;;;3.75;2.00;;;;;;;;5112109;27;8849;-78
2022/11/09 00:44:28;;;;;;;;;2.00;2.00;;;;;;;;5133414;27;8844;-78
2022/11/09 00:46:55;;;;;;;;;2.00;2.00;;;;;;;;5129494;27;8979;-77
2022/11/09 00:49:23;;;;;;;;;1.00;1.00;;;;;;;;5131566;27;8847;-77
2022/11/09 00:51:50;;;;;;;;;2.00;2.00;;;;;;;;5111769;27;8891;-77
2022/11/09 00:54:18;;;;;;;;;1.00;1.00;;;;;;;;5110140;27;8789;-76
2022/11/09 00:56:45;;;;;;;;;2.25;1.75;;;;;;;;5105696;27;8838;-77
2022/11/09 00:59:15;;;;;;;;;1.50;1.00;;;;;;;;5126261;27;8864;-76
2022/11/09 01:01:42;;;;;;;;;1.50;1.50;;;;;;;;5126564;27;8838;-78
2022/11/09 01:04:10;;;;;;;;;4.00;2.00;;;;;;;;5110185;27;8848;-77
2022/11/09 01:06:37;;;;;;;;;1.25;0.50;;;;;;;;5123814;27;8838;-77
2022/11/09 01:09:05;;;;;;;;;3.25;0.75;;;;;;;;5125226;27;8838;-77
2022/11/09 01:11:32;;;;;;;;;0.50;0.50;;;;;;;;5109255;27;8848;-78
2022/11/09 01:14:03;;;;;;;;;1.50;1.00;;;;;;;;5125757;27;8852;-77
2022/11/09 01:16:47;;;;;;;;;1.00;1.00;;;;;;;;5127022;27;8849;-77
2022/11/09 01:19:15;;;;;;;;;1.00;1.00;;;;;;;;5124977;27;8895;-77
2022/11/09 01:21:43;;;;;;;;;1.00;1.00;;;;;;;;5120265;27;8840;-78
2022/11/09 01:24:12;;;;;;;;;2.00;2.00;;;;;;;;5105882;27;8866;-78
2022/11/09 01:26:39;;;;;;;;;3.50;2.25;;;;;;;;5103126;27;8850;-78
2022/11/09 01:29:07;;;;;;;;;2.00;2.00;;;;;;;;5136859;27;8856;-78
2022/11/09 01:31:36;;;;;;;;;2.00;0.25;;;;;;;;5131617;27;8863;-78
2022/11/09 01:34:05;;;;;;;;;2.00;2.00;;;;;;;;5114369;27;8898;-78
2022/11/09 01:36:33;;;;;;;;;1.50;1.50;;;;;;;;5132318;27;8860;-78
2022/11/09 01:39:01;;;;;;;;;2.00;2.00;;;;;;;;5134149;27;8923;-77
2022/11/09 01:41:29;;;;;;;;;2.50;2.50;;;;;;;;5123068;27;8824;-77
2022/11/09 01:44:09;;;;;;;;;2.50;2.50;;;;;;;;5114702;27;9736;-77
2022/11/09 01:46:40;;;;;;;;;1.25;1.25;;;;;;;;5123544;27;8820;-77
2022/11/09 01:49:15;;;;;;;;;3.00;3.00;;;;;;;;5125749;27;8874;-77
2022/11/09 01:51:46;;;;;;;;;3.00;3.00;;;;;;;;5132145;27;9634;-78
2022/11/09 01:54:18;;;;;;;;;1.75;1.75;;;;;;;;5131774;27;8856;-78
2022/11/09 01:56:46;;;;;;;;;2.00;2.00;;;;;;;;5130987;27;8853;-78
2022/11/09 01:59:17;;;;;;;;;4.00;2.00;;;;;;;;5112231;27;9633;-77
2022/11/09 02:01:45;;;;;;;;;2.00;2.00;;;;;;;;5127104;27;8963;-77
2022/11/09 02:04:17;;;;;;;;;2.00;1.00;;;;;;;;5135590;27;8826;-76
2022/11/09 02:06:45;;;;;;;;;0.25;0.25;;;;;;;;5093865;27;8841;-76
2022/11/09 02:09:19;;;;;;;;;2.25;2.25;;;;;;;;5098086;28;8854;-78
2022/11/09 02:11:46;;;;;;;;;5.25;2.25;;;;;;;;5093702;28;8829;-78
2022/11/09 02:14:14;;;;;;;;;5.00;2.50;;;;;;;;5093601;28;8971;-78
2022/11/09 02:16:42;;;;;;;;;2.00;2.00;;;;;;;;5096098;28;8842;-78
2022/11/09 02:19:09;;;;;;;;;3.25;2.00;;;;;;;;5093437;28;9743;-77
2022/11/09 02:21:39;;;;;;;;;5.00;3.25;;;;;;;;5093376;28;8838;-78
2022/11/09 02:24:07;;;;;;;;;3.25;3.25;;;;;;;;5102305;28;8933;-78
2022/11/09 02:26:39;;;;;;;;;1.75;1.75;;;;;;;;5101750;28;8870;-79
2022/11/09 02:29:09;;;;;;;;;2.75;1.50;;;;;;;;5095932;28;8846;-78
2022/11/09 02:31:40;;;;;;;;;1.00;1.00;;;;;;;;5092138;28;8836;-77
2022/11/09 02:34:10;;;;;;;;;1.00;1.00;;;;;;;;5091681;28;8922;-77
2022/11/09 02:36:39;;;;;;;;;2.00;2.00;;;;;;;;5096575;28;8852;-77
2022/11/09 02:39:07;;;;;;;;;1.00;1.00;;;;;;;;5095022;28;8825;-78
2022/11/09 02:41:40;;;;;;;;;2.00;2.00;;;;;;;;5096461;28;8878;-78
2022/11/09 02:44:07;;;;;;;;;2.00;2.00;;;;;;;;5097472;28;9640;-78
2022/11/09 02:46:36;;;;;;;;;2.75;1.00;;;;;;;;5099184;28;8983;-78
2022/11/09 02:49:04;;;;;;;;;3.00;1.75;;;;;;;;5099458;28;8969;-77
2022/11/09 02:51:32;;;;;;;;;7.50;3.00;;;;;;;;5098600;28;8886;-77
2022/11/09 02:54:01;;;;;;;;;2.00;2.00;;;;;;;;5078802;28;8795;-78
2022/11/09 02:56:31;;;;;;;;;2.50;1.00;;;;;;;;5078993;28;8848;-77
2022/11/09 02:59:02;;;;;;;;;1.75;1.75;;;;;;;;5080581;28;8931;-78
2022/11/09 03:01:29;;;;;;;;;1.25;1.25;;;;;;;;5077481;28;8890;-77
2022/11/09 03:03:57;;;;;;;;;0.00;0.00;;;;;;;;5082258;28;8846;-77
2022/11/09 03:06:33;;;;;;;;;1.75;1.75;;;;;;;;5108430;27;8894;-76
2022/11/09 03:09:02;;;;;;;;;1.75;1.75;;;;;;;;5101854;27;8898;-76
2022/11/09 03:11:30;;;;;;;;;2.00;2.00;;;;;;;;5118911;27;8862;-77
2022/11/09 03:13:59;;;;;;;;;2.00;2.00;;;;;;;;5095787;27;8925;-76
2022/11/09 03:16:26;;;;;;;;;2.00;2.00;;;;;;;;5114307;27;9602;-76
2022/11/09 03:18:54;;;;;;;;;4.50;1.00;;;;;;;;5116019;27;8827;-77
2022/11/09 03:21:23;;;;;;;;;1.25;1.25;;;;;;;;5116977;27;8848;-77
2022/11/09 03:23:50;;;;;;;;;3.00;1.00;;;;;;;;5116968;27;8828;-77
2022/11/09 03:26:19;;;;;;;;;2.00;2.00;;;;;;;;5113327;27;9714;-76
2022/11/09 03:28:47;;;;;;;;;2.00;1.50;;;;;;;;5118394;27;8853;-77
2022/11/09 03:31:14;;;;;;;;;2.00;2.00;;;;;;;;5115973;27;8948;-77
2022/11/09 03:33:42;;;;;;;;;2.00;2.00;;;;;;;;5120205;27;8876;-77
2022/11/09 03:36:10;;;;;;;;;3.00;1.00;;;;;;;;5101869;27;8966;-77
2022/11/09 03:38:37;;;;;;;;;1.67;1.67;;;;;;;;5119254;27;8824;-78
2022/11/09 03:41:05;;;;;;;;;1.00;1.00;;;;;;;;5117245;27;8891;-78
2022/11/09 03:43:35;;;;;;;;;1.50;0.25;;;;;;;;5120852;27;9691;-77
2022/11/09 03:46:02;;;;;;;;;2.00;0.25;;;;;;;;5125276;27;8872;-78
2022/11/09 03:48:29;;;;;;;;;2.00;2.00;;;;;;;;5118111;27;9039;-78
2022/11/09 03:50:57;;;;;;;;;1.00;1.00;;;;;;;;5116977;27;8854;-77
2022/11/09 03:53:24;;;;;;;;;1.25;0.25;;;;;;;;5117873;27;8875;-76
2022/11/09 03:55:52;;;;;;;;;0.50;0.50;;;;;;;;5123698;27;8964;-78
2022/11/09 03:58:20;;;;;;;;;0.00;0.00;;;;;;;;5101263;27;9632;-77
2022/11/09 04:00:49;;;;;;;;;1.00;1.00;;;;;;;;5131293;27;9602;-77
2022/11/09 04:03:16;;;;;;;;;0.67;0.33;;;;;;;;5114837;27;8980;-77
2022/11/09 04:05:44;;;;;;;;;1.00;1.00;;;;;;;;5114899;27;8957;-78
2022/11/09 04:08:11;;;;;;;;;3.00;1.00;;;;;;;;5093497;27;9113;-77
2022/11/09 04:10:39;;;;;;;;;1.00;1.00;;;;;;;;5116547;27;9041;-77
2022/11/09 04:13:07;;;;;;;;;2.00;2.00;;;;;;;;5089267;27;9770;-77
2022/11/09 04:15:35;;;;;;;;;1.00;1.00;;;;;;;;5115682;27;8955;-77
2022/11/09 04:18:04;;;;;;;;;2.00;2.00;;;;;;;;5111770;27;8943;-77
2022/11/09 04:20:32;;;;;;;;;0.00;0.00;;;;;;;;5123789;27;9197;-80
2022/11/09 04:23:01;;;;;;;;;0.50;0.00;;;;;;;;5130073;27;8856;-77
2022/11/09 04:25:33;;;;;;;;;1.00;1.00;;;;;;;;5101714;27;8907;-78
2022/11/09 04:28:01;;;;;;;;;1.00;1.00;;;;;;;;5126428;27;9700;-77
2022/11/09 04:30:31;;;;;;;;;1.00;0.67;;;;;;;;5124367;27;8932;-77
2022/11/09 04:32:59;;;;;;;;;1.33;1.00;;;;;;;;5131204;27;9005;-77
2022/11/09 04:35:30;;;;;;;;;0.33;0.33;;;;;;;;5104617;27;8954;-78
2022/11/09 04:38:00;;;;;;;;;2.00;2.00;;;;;;;;5127166;27;8981;-78
2022/11/09 04:40:29;;;;;;;;;2.33;1.00;;;;;;;;5127722;27;9122;-77
2022/11/09 04:42:58;;;;;;;;;0.33;0.33;;;;;;;;5127792;27;8947;-77
2022/11/09 04:45:26;;;;;;;;;0.00;0.00;;;;;;;;5125189;27;9061;-77
2022/11/09 04:47:58;;;;;;;;;0.00;0.00;;;;;;;;5107706;27;8938;-77
2022/11/09 04:50:29;;;;;;;;;0.00;0.00;;;;;;;;5106438;27;9089;-78
2022/11/09 04:53:04;;;;;;;;;0.00;0.00;;;;;;;;5125392;27;9135;-78
2022/11/09 04:55:34;;;;;;;;;1.33;0.00;;;;;;;;5123806;27;8999;-77
2022/11/09 04:58:02;;;;;;;;;0.00;0.00;;;;;;;;5125368;27;8954;-77
2022/11/09 05:00:29;;;;;;;;;1.00;1.00;;;;;;;;5129554;27;9030;-77
2022/11/09 05:03:00;;;;;;;;;2.00;1.00;;;;;;;;5106752;27;9134;-76
2022/11/09 05:05:30;;;;;;;;;1.67;0.67;;;;;;;;5121937;27;8913;-77
2022/11/09 05:07:57;;;;;;;;;2.00;0.00;;;;;;;;5128413;27;9017;-76
2022/11/09 05:10:25;;;;;;;;;1.67;0.00;;;;;;;;5123546;27;9009;-77
2022/11/09 05:12:58;;;;;;;;;0.00;0.00;;;;;;;;5092843;27;9151;-77
2022/11/09 05:15:26;;;;;;;;;1.00;1.00;;;;;;;;5132350;27;9108;-77
2022/11/09 05:17:53;;;;;;;;;0.00;0.00;;;;;;;;5129125;27;9233;-76
2022/11/09 05:20:21;;;;;;;;;1.00;1.00;;;;;;;;5124370;27;9159;-76
2022/11/09 05:25:35;;;;;;;;;1.67;1.67;;;;;;;;5120500;27;9364;-77
2022/11/09 05:28:03;;;;;;;;;0.67;0.67;;;;;;;;5128313;27;9365;-78
2022/11/09 05:30:30;;;;;;;;;0.33;0.00;;;;;;;;5138462;27;9188;-77
2022/11/09 05:32:58;;;;;;;;;3.33;0.00;;;;;;;;5133807;27;9221;-77
2022/11/09 05:35:26;;;;;;;;;0.00;0.00;;;;;;;;5135348;27;9378;-76
2022/11/09 05:37:55;;;;;;;;;0.00;0.00;;;;;;;;5133241;27;9422;-77
2022/11/09 05:40:23;;;;;;;;;0.00;0.00;;;;;;;;5134017;27;9283;-78
2022/11/09 05:42:51;;;;;;;;;0.00;0.00;;;;;;;;5136799;27;9332;-77
2022/11/09 05:45:20;;;;;;;;;1.00;1.00;;;;;;;;5114298;27;9304;-77
2022/11/09 05:47:48;;;;;;;;;0.00;0.00;;;;;;;;5114771;27;9302;-77
2022/11/09 05:50:17;;;;;;;;;0.00;0.00;;;;;;;;5117192;27;9381;-77
2022/11/09 05:52:47;;;;;;;;;1.00;1.00;;;;;;;;5138595;27;9165;-78
2022/11/09 05:55:17;;;;;;;;;1.00;1.00;;;;;;;;5131751;27;9233;-75
2022/11/09 05:57:44;;;;;;;;;2.00;0.00;;;;;;;;5128197;27;9236;-78
2022/11/09 06:00:15;;;;;;;;;1.00;1.00;;;;;;;;5130352;27;9230;-78
2022/11/09 06:02:43;;;;;;;;;0.00;0.00;;;;;;;;5129356;27;9309;-78
2022/11/09 06:05:10;;;;;;;;;1.67;0.00;;;;;;;;5130165;27;9261;-79
2022/11/09 06:07:38;;;;;;;;;0.33;0.33;;;;;;;;5138953;27;10127;-78
2022/11/09 06:10:08;;;;;;;;;0.00;0.00;;;;;;;;5136258;27;9170;-78
2022/11/09 06:12:37;;;;;;;;;1.00;1.00;;;;;;;;5100817;27;9175;-77
2022/11/09 06:15:05;;;;;;;;;2.33;0.00;;;;;;;;5133028;27;9147;-76
2022/11/09 06:17:37;;;;;;;;;0.00;0.00;;;;;;;;5111406;27;9143;-77
2022/11/09 06:20:04;;;;;;;;;4.00;0.00;;;;;;;;5126109;27;9156;-77
2022/11/09 06:22:33;;;;;;;;;0.67;0.00;;;;;;;;5129903;27;9231;-77
2022/11/09 06:25:00;;;;;;;;;0.00;0.00;;;;;;;;5108508;27;9231;-76
2022/11/09 06:27:32;;;;;;;;;0.00;0.00;;;;;;;;5107249;27;9151;-77
2022/11/09 06:30:01;;;;;;;;;0.67;0.67;;;;;;;;5128382;27;9428;-77
2022/11/09 06:32:29;;;;;;;;;1.00;0.00;;;;;;;;5105146;27;9299;-77
2022/11/09 06:34:57;;;;;;;;;0.00;0.00;;;;;;;;5115400;27;9320;-78
2022/11/09 06:37:24;;;;;;;;;1.67;0.00;;;;;;;;5114449;27;9112;-78
2022/11/09 06:39:54;;;;;;;;;1.00;1.00;;;;;;;;5119202;27;9309;-78
2022/11/09 06:42:21;;;;;;;;;0.00;0.00;;;;;;;;5114124;27;9478;-77
2022/11/09 06:44:49;;;;;;;;;0.00;0.00;;;;;;;;5127859;27;9299;-76
2022/11/09 06:47:18;;;;;;;;;0.00;0.00;;;;;;;;5124588;27;9302;-77
2022/11/09 06:49:46;;;;;;;;;1.67;1.00;;;;;;;;5112624;27;9302;-77
2022/11/09 06:52:13;;;;;;;;;0.00;0.00;;;;;;;;5115795;27;10159;-77
2022/11/09 06:54:41;;;;;;;;;2.67;0.33;;;;;;;;5112974;27;9304;-78
2022/11/09 06:57:08;;;;;;;;;2.00;0.00;;;;;;;;5122959;27;10316;-77
2022/11/09 06:59:36;;;;;;;;;0.33;0.33;;;;;;;;5116478;27;9273;-75
2022/11/09 07:02:03;;;;;;;;;3.00;1.00;;;;;;;;5111908;27;9340;-77
2022/11/09 07:04:35;;;;;;;;;0.33;0.33;;;;;;;;5124795;27;9289;-77
2022/11/09 07:07:03;;;;;;;;;0.00;0.00;;;;;;;;5125325;27;9370;-77
2022/11/09 07:09:32;;;;;;;;;0.67;0.67;;;;;;;;5113029;27;9304;-78
2022/11/09 07:12:00;;;;;;;;;1.00;1.00;;;;;;;;5130803;27;9296;-77
2022/11/09 07:14:28;;;;;;;;;2.33;1.00;;;;;;;;5094357;27;9331;-78
2022/11/09 07:16:55;;;;;;;;;3.33;0.33;;;;;;;;5128649;27;9209;-77
2022/11/09 07:19:23;;;;;;;;;1.00;1.00;;;;;;;;5109794;27;9305;-76
2022/11/09 07:21:53;;;;;;;;;0.00;0.00;;;;;;;;5127171;27;9234;-79
2022/11/09 07:24:21;;;;;;;;;0.00;0.00;;;;;;;;5103608;27;9170;-78
2022/11/09 07:26:48;;;;;;;;;0.33;0.33;;;;;;;;5103969;27;9258;-78
2022/11/09 07:29:16;;;;;;;;;2.67;1.00;;;;;;;;5122788;27;9195;-77
2022/11/09 07:31:44;;;;;;;;;4.00;2.00;;;;;;;;5105533;27;9289;-76
2022/11/09 07:34:11;;;;;;;;;0.00;0.00;;;;;;;;5119095;27;9162;-76
2022/11/09 07:36:39;;;;;;;;;3.00;1.00;;;;;;;;5124460;27;9914;-77
2022/11/09 07:39:08;;;;;;;;;1.00;1.00;;;;;;;;5124896;27;9352;-77
2022/11/09 07:41:35;;;;;;;;;1.00;1.00;;;;;;;;5121298;27;9305;-73
2022/11/09 07:44:03;;;;;;;;;1.67;1.67;;;;;;;;5119126;27;9336;-75
2022/11/09 07:46:31;;;;;;;;;3.00;3.00;;;;;;;;5097896;27;9316;-72
2022/11/09 07:48:59;;;;;;;;;2.00;2.00;;;;;;;;5123037;27;9318;-74
2022/11/09 07:51:27;;;;;;;;;2.00;2.00;;;;;;;;5125806;27;9156;-75
2022/11/09 07:53:55;;;;;;;;;6.00;2.67;;;;;;;;5118117;27;11852;-73
2022/11/09 07:56:24;;;;;;;;;2.33;1.33;;;;;;;;5102099;27;9327;-74
2022/11/09 07:58:51;;;;;;;;;1.67;1.67;;;;;;;;5123647;27;9236;-74
2022/11/09 08:01:20;;;;;;;;;1.67;1.67;;;;;;;;5102220;27;8987;-75
2022/11/09 08:03:47;;;;;;;;;3.00;3.00;;;;;;;;5100926;27;9198;-75
2022/11/09 08:06:15;;;;;;;;;3.00;1.33;;;;;;;;5101305;27;8998;-73
2022/11/09 08:08:42;;;;;;;;;3.00;3.00;;;;;;;;5113001;27;9114;-74
2022/11/09 08:11:10;;;;;;;;;1.00;1.00;;;;;;;;5109238;27;9267;-75
2022/11/09 08:13:39;;;;;;;;;2.00;0.33;;;;;;;;5111211;27;9072;-73
2022/11/09 08:16:08;;;;;;;;;1.00;1.00;;;;;;;;5088490;27;8892;-74
2022/11/09 08:18:36;;;;;;;;;2.00;2.00;;;;;;;;5104161;27;9079;-76
2022/11/09 08:21:04;;;;;;;;;3.00;1.33;;;;;;;;5103989;27;9231;-76
2022/11/09 08:23:32;;;;;;;;;1.00;1.00;;;;;;;;5108567;27;9182;-75
2022/11/09 08:26:03;;;;;;;;;1.00;1.00;;;;;;;;5106139;27;9229;-71
2022/11/09 08:28:30;;;;;;;;;1.00;1.00;;;;;;;;5087639;27;9172;-72
2022/11/09 08:31:01;;;;;;;;;3.67;2.00;;;;;;;;5106984;27;9020;-72
2022/11/09 08:33:31;;;;;;;;;2.00;2.00;;;;;;;;5105940;27;8949;-73
2022/11/09 08:35:59;;;;;;;;;2.00;1.00;;;;;;;;5109632;27;8929;-73
2022/11/09 08:38:26;;;;;;;;;1.67;1.67;;;;;;;;5102828;27;9003;-72
2022/11/09 08:40:57;;;;;;;;;6.00;2.00;;;;;;;;5120445;27;9842;-73
2022/11/09 08:43:25;;;;;;;;;1.00;1.00;;;;;;;;5114333;27;9031;-71
2022/11/09 08:45:53;;;;;;;;;1.00;1.00;;;;;;;;5118415;27;9004;-71
2022/11/09 08:48:22;;;;;;;;;4.00;1.00;;;;;;;;5101871;27;8891;-72
2022/11/09 08:50:52;;;;;;;;;1.67;1.33;;;;;;;;5125576;27;8907;-72
2022/11/09 08:53:20;;;;;;;;;1.00;1.00;;;;;;;;5121022;27;9035;-72
2022/11/09 08:55:48;;;;;;;;;2.00;0.25;;;;;;;;5117549;27;8968;-70
2022/11/09 08:58:16;;;;;;;;;1.25;1.25;;;;;;;;5121451;27;8828;-72
2022/11/09 09:00:43;;;;;;;;;2.75;1.25;;;;;;;;5121814;27;8846;-72
2022/11/09 09:03:11;;;;;;;;;0.25;0.25;;;;;;;;5122755;27;8812;-71
2022/11/09 09:05:40;;;;;;;;;5.25;1.00;;;;;;;;5109029;27;8831;-74
2022/11/09 09:08:10;;;;;;;;;3.50;2.00;;;;;;;;5129549;27;8847;-73
2022/11/09 09:10:39;;;;;;;;;3.00;2.00;;;;;;;;5121986;27;8832;-74
2022/11/09 09:13:06;;;;;;;;;2.75;2.50;;;;;;;;5124105;27;8824;-75
2022/11/09 09:15:34;;;;;;;;;1.25;1.00;;;;;;;;5119359;27;8850;-72
2022/11/09 09:18:02;;;;;;;;;2.25;1.00;;;;;;;;5124033;27;8871;-72
2022/11/09 09:20:29;;;;;;;;;1.00;1.00;;;;;;;;5129824;27;8856;-72
2022/11/09 09:23:00;;;;;;;;;3.50;1.00;;;;;;;;5125253;27;9373;-72
2022/11/09 09:25:28;;;;;;;;;2.50;1.00;;;;;;;;5128791;27;8881;-71
2022/11/09 09:27:55;;;;;;;;;1.00;1.00;;;;;;;;5124534;27;8816;-72
2022/11/09 09:30:23;;;;;;;;;1.00;1.00;;;;;;;;5106099;27;9298;-71
2022/11/09 09:32:51;;;;;;;;;1.75;0.50;;;;;;;;5132965;27;8828;-71
2022/11/09 09:35:18;;;;;;;;;0.75;0.75;;;;;;;;5129437;27;8878;-73
2022/11/09 09:37:46;;;;;;;;;2.50;1.25;;;;;;;;5105761;27;8848;-71
2022/11/09 09:40:29;;;;;;;;;2.50;1.75;;;;;;;;5130793;27;8898;-72
2022/11/09 09:42:57;;;;;;;;;2.00;2.00;;;;;;;;5140287;27;8867;-71
2022/11/09 09:45:28;;;;;;;;;1.00;1.00;;;;;;;;5108941;27;8893;-71
2022/11/09 09:48:00;;;;;;;;;2.75;1.00;;;;;;;;5126510;27;8803;-72
2022/11/09 09:50:30;;;;;;;;;1.00;1.00;;;;;;;;5125551;27;8870;-73
2022/11/09 09:53:02;;;;;;;;;1.75;0.25;;;;;;;;5127790;27;8832;-71
2022/11/09 09:55:36;;;;;;;;;1.25;1.25;;;;;;;;5127001;27;8967;-71
2022/11/09 09:58:10;;;;;;;;;1.00;1.00;;;;;;;;5130367;27;8855;-72
2022/11/09 10:00:38;;;;;;;;;4.25;2.00;;;;;;;;5125238;27;8869;-71
2022/11/09 10:03:05;;;;;;;;;3.00;3.00;;;;;;;;5091452;27;8832;-71
2022/11/09 10:05:45;;;;;;;;;2.50;1.75;;;;;;;;5127831;27;8936;-72
2022/11/09 10:08:19;;;;;;;;;0.75;0.75;;;;;;;;5124411;27;8900;-72
2022/11/09 10:11:00;;;;;;;;;1.25;1.25;;;;;;;;5124027;27;8955;-73
2022/11/09 10:13:39;;;;;;;;;2.25;1.50;;;;;;;;5127475;27;8876;-73
2022/11/09 10:16:12;;;;;;;;;1.50;0.25;;;;;;;;5106014;27;8841;-73
2022/11/09 10:18:50;;;;;;;;;1.75;1.75;;;;;;;;5105921;27;9577;-73
2022/11/09 10:21:28;;;;;;;;;1.00;1.00;;;;;;;;5125594;27;8874;-72
2022/11/09 10:24:10;;;;;;;;;1.00;1.00;;;;;;;;5116841;27;8855;-76
2022/11/09 10:26:44;;;;;;;;;0.00;0.00;;;;;;;;5129423;27;8900;-75
2022/11/09 10:29:22;;;;;;;;;0.00;0.00;;;;;;;;5104857;27;8958;-76
2022/11/09 10:31:52;;;;;;;;;2.00;0.25;;;;;;;;5124548;27;8859;-75
2022/11/09 10:34:22;;;;;;;;;0.25;0.25;;;;;;;;5107757;27;8850;-75
2022/11/09 10:36:55;;;;;;;;;1.00;1.00;;;;;;;;5124476;27;9048;-76
2022/11/09 10:39:25;;;;;;;;;3.75;1.00;;;;;;;;5127624;27;9011;-76
2022/11/09 10:41:54;;;;;;;;;1.00;1.00;;;;;;;;5129027;27;9652;-76
2022/11/09 10:44:23;;;;;;;;;1.50;0.00;;;;;;;;5127902;27;8912;-76
2022/11/09 10:47:06;;;;;;;;;1.00;1.00;;;;;;;;5126205;27;8820;-75
2022/11/09 10:49:34;;;;;;;;;3.00;1.25;;;;;;;;5126204;27;8918;-74
2022/11/09 10:52:05;;;;;;;;;3.75;1.00;;;;;;;;5124198;27;8844;-76
2022/11/09 10:54:36;;;;;;;;;3.00;1.00;;;;;;;;5121593;27;8872;-74
2022/11/09 10:57:14;;;;;;;;;1.75;1.00;;;;;;;;5123510;27;8839;-75
2022/11/09 10:59:46;;;;;;;;;3.00;1.00;;;;;;;;5124644;27;8853;-74
2022/11/09 11:02:48;;;;;;;;;1.00;1.00;;;;;;;;5103627;27;8882;-73
2022/11/09 11:05:33;;;;;;;;;1.25;1.00;;;;;;;;5045382;28;8817;-73
2022/11/09 11:08:26;;;;;;;;;0.00;0.00;;;;;;;;5038896;28;8877;-73
2022/11/09 11:11:07;;;;;;;;;1.50;1.00;;;;;;;;5102683;27;8867;-73
2022/11/09 11:13:40;;;;;;;;;0.25;0.00;;;;;;;;5105647;27;8838;-74
2022/11/09 11:16:16;;;;;;;;;0.00;0.00;;;;;;;;5123428;27;8840;-74
2022/11/09 11:18:46;;;;;;;;;1.00;1.00;;;;;;;;5123437;27;8797;-74
2022/11/09 11:21:16;;;;;;;;;1.50;1.50;;;;;;;;5122744;27;8835;-73
2022/11/09 11:23:44;;;;;;;;;0.75;0.75;;;;;;;;5104005;27;8859;-73
2022/11/09 11:26:36;;;;;;;;;3.00;1.25;;;;;;;;5104527;27;8850;-73
2022/11/09 11:29:17;;;;;;;;;0.00;0.00;;;;;;;;5105113;27;8920;-74
2022/11/09 11:31:44;;;;;;;;;4.50;0.25;;;;;;;;5122510;27;8948;-74
2022/11/09 11:34:14;;;;;;;;;2.00;0.00;;;;;;;;5104134;27;9647;-73
2022/11/09 11:36:51;;;;;;;;;0.25;0.25;;;;;;;;5122113;27;8872;-73
2022/11/09 11:39:29;;;;;;;;;0.25;0.25;;;;;;;;5104839;27;8981;-73
2022/11/09 11:42:18;;;;;;;;;1.00;1.00;;;;;;;;5120688;27;8878;-73
2022/11/09 11:44:57;;;;;;;;;3.25;0.75;;;;;;;;5101370;27;8842;-74
2022/11/09 11:47:37;;;;;;;;;0.00;0.00;;;;;;;;5098998;27;9614;-77
2022/11/09 11:50:26;;;;;;;;;0.00;0.00;;;;;;;;5102787;27;8844;-75
2022/11/09 11:53:05;;;;;;;;;0.00;0.00;;;;;;;;5104000;27;8833;-75
2022/11/09 11:55:52;;;;;;;;;0.00;0.00;;;;;;;;5104802;27;8871;-75
2022/11/09 11:58:28;;;;;;;;;1.00;1.00;;;;;;;;5123984;27;8864;-77
2022/11/09 12:01:04;;;;;;;;;2.50;1.00;;;;;;;;5120691;27;8830;-76
2022/11/09 12:03:43;;;;;;;;;2.00;0.00;;;;;;;;5125165;27;8828;-75
2022/11/09 12:06:38;;;;;;;;;0.25;0.25;;;;;;;;5125461;27;8841;-76
2022/11/09 12:09:18;;;;;;;;;1.00;0.25;;;;;;;;5120286;27;9640;-77
2022/11/09 12:11:54;;;;;;;;;0.50;0.50;;;;;;;;5122721;27;8835;-77
2022/11/09 12:14:31;;;;;;;;;0.00;0.00;;;;;;;;5124844;27;8839;-77
2022/11/09 12:17:11;;;;;;;;;0.75;0.75;;;;;;;;5104022;27;8859;-79
2022/11/09 12:20:11;;;;;;;;;1.00;1.00;;;;;;;;5122409;27;8987;-78
2022/11/09 12:22:47;;;;;;;;;2.00;0.00;;;;;;;;5120237;27;8848;-79
2022/11/09 12:25:18;;;;;;;;;1.00;1.00;;;;;;;;5106712;27;8853;-78
2022/11/09 12:27:59;;;;;;;;;2.00;0.00;;;;;;;;5120484;27;8860;-78
2022/11/09 12:30:31;;;;;;;;;2.00;0.00;;;;;;;;5121974;27;8874;-79
2022/11/09 12:33:03;;;;;;;;;0.00;0.00;;;;;;;;5100712;27;8892;-79
2022/11/09 12:35:36;;;;;;;;;0.50;0.00;;;;;;;;5118999;27;8848;-78
2022/11/09 12:38:09;;;;;;;;;1.25;0.00;;;;;;;;5118679;27;8992;-79
2022/11/09 12:40:43;;;;;;;;;0.75;0.75;;;;;;;;5121841;27;8826;-78
2022/11/09 12:43:17;;;;;;;;;0.00;0.00;;;;;;;;5126435;27;8816;-75
2022/11/09 12:45:45;;;;;;;;;0.00;0.00;;;;;;;;5121904;27;8864;-74
2022/11/09 12:48:21;;;;;;;;;1.25;0.50;;;;;;;;5120917;27;8839;-74
2022/11/09 12:50:49;;;;;;;;;1.75;1.00;;;;;;;;5123818;27;8844;-76
2022/11/09 12:53:17;;;;;;;;;2.25;0.00;;;;;;;;5105615;27;8934;-75
2022/11/09 12:55:50;;;;;;;;;0.25;0.25;;;;;;;;5104867;27;8848;-76
2022/11/09 12:58:25;;;;;;;;;0.00;0.00;;;;;;;;5122428;27;8847;-76
2022/11/09 13:00:57;;;;;;;;;0.00;0.00;;;;;;;;5119967;27;8832;-79
2022/11/09 13:03:29;;;;;;;;;2.00;0.00;;;;;;;;5121950;27;8843;-79
2022/11/09 13:06:24;;;;;;;;;0.50;0.00;;;;;;;;5121367;27;9554;-80
2022/11/09 13:09:01;;;;;;;;;1.00;1.00;;;;;;;;5127144;27;8832;-79
2022/11/09 13:11:40;;;;;;;;;0.00;0.00;;;;;;;;5123541;27;8806;-75
2022/11/09 13:14:29;;;;;;;;;1.00;1.00;;;;;;;;5105167;27;8840;-75
2022/11/09 13:16:58;;;;;;;;;1.00;1.00;;;;;;;;5117155;27;9694;-78
2022/11/09 13:19:53;;;;;;;;;0.00;0.00;;;;;;;;5122796;27;8830;-75
2022/11/09 13:22:59;;;;;;;;;0.00;0.00;;;;;;;;5122420;27;8871;-75
2022/11/09 13:25:49;;;;;;;;;0.00;0.00;;;;;;;;5117884;27;8861;-75
2022/11/09 13:28:44;;;;;;;;;0.25;0.25;;;;;;;;5120959;27;8876;-75
2022/11/09 13:31:13;;;;;;;;;0.00;0.00;;;;;;;;5119240;27;8821;-75
2022/11/09 13:33:42;;;;;;;;;0.00;0.00;;;;;;;;5122350;27;8847;-73
2022/11/09 13:36:18;;;;;;;;;0.00;0.00;;;;;;;;5097884;27;8970;-73
2022/11/09 13:38:47;;;;;;;;;0.00;0.00;;;;;;;;5102657;27;8816;-73
2022/11/09 13:41:43;;;;;;;;;0.25;0.00;;;;;;;;5126299;27;8871;-72
2022/11/09 13:44:22;;;;;;;;;0.00;0.00;;;;;;;;5122524;27;8832;-73
2022/11/09 13:46:52;;;;;;;;;2.00;0.50;;;;;;;;5126060;27;8856;-72
2022/11/09 13:49:43;;;;;;;;;0.00;0.00;;;;;;;;5124018;27;8815;-73
2022/11/09 13:52:49;;;;;;;;;0.00;0.00;;;;;;;;5107925;27;8827;-74
2022/11/09 13:55:26;;;;;;;;;0.75;0.00;;;;;;;;5125686;27;8840;-73
2022/11/09 13:57:55;;;;;;;;;0.00;0.00;;;;;;;;5107492;27;8840;-74
2022/11/09 14:00:25;;;;;;;;;0.00;0.00;;;;;;;;5125503;27;8846;-74
2022/11/09 14:02:58;;;;;;;;;0.00;0.00;;;;;;;;5128870;27;8827;-73
2022/11/09 14:05:29;;;;;;;;;0.00;0.00;;;;;;;;5127584;27;8849;-74
2022/11/09 14:08:02;;;;;;;;;0.00;0.00;;;;;;;;5132086;27;8864;-73
2022/11/09 14:10:47;;;;;;;;;0.25;0.00;;;;;;;;5108620;27;8855;-73
2022/11/09 14:13:41;;;;;;;;;1.25;0.00;;;;;;;;5127340;27;9617;-73
2022/11/09 14:16:21;;;;;;;;;0.00;0.00;;;;;;;;5106304;27;8900;-74
2022/11/09 14:18:56;;;;;;;;;0.00;0.00;;;;;;;;5126951;27;8838;-73
2022/11/09 14:21:35;;;;;;;;;0.00;0.00;;;;;;;;5105778;27;8849;-73
2022/11/09 14:24:14;;;;;;;;;0.00;0.00;;;;;;;;5118184;27;8934;-74
2022/11/09 14:27:13;;;;;;;;;0.00;0.00;;;;;;;;5120514;27;8980;-75
2022/11/09 14:29:50;;;;;;;;;0.00;0.00;;;;;;;;5125690;27;8920;-75
2022/11/09 14:32:27;;;;;;;;;0.00;0.00;;;;;;;;5122844;27;8854;-74
2022/11/09 14:35:09;;;;;;;;;0.00;0.00;;;;;;;;5122282;27;8838;-72
2022/11/09 14:37:37;;;;;;;;;0.00;0.00;;;;;;;;5126554;27;8816;-76
2022/11/09 14:40:20;;;;;;;;;0.75;0.00;;;;;;;;5124720;27;8960;-76
2022/11/09 14:42:50;;;;;;;;;0.25;0.00;;;;;;;;5106773;27;9721;-75
2022/11/09 14:45:18;;;;;;;;;2.75;0.00;;;;;;;;5127157;27;8846;-76
2022/11/09 14:47:50;;;;;;;;;0.00;0.00;;;;;;;;5124405;27;8814;-76
2022/11/09 14:50:21;;;;;;;;;0.00;0.00;;;;;;;;5120980;27;8824;-74
2022/11/09 14:52:50;;;;;;;;;0.00;0.00;;;;;;;;5124633;27;8850;-74
2022/11/09 14:55:22;;;;;;;;;1.00;1.00;;;;;;;;5122870;27;8818;-74
2022/11/09 14:57:50;;;;;;;;;0.00;0.00;;;;;;;;5123730;27;8848;-75
2022/11/09 15:00:28;;;;;;;;;0.00;0.00;;;;;;;;5105944;27;8856;-74
2022/11/09 15:02:56;;;;;;;;;0.00;0.00;;;;;;;;5106621;27;8812;-74
2022/11/09 15:05:38;;;;;;;;;3.25;2.00;;;;;;;;5124141;27;9641;-75
2022/11/09 15:08:11;;;;;;;;;1.00;1.00;;;;;;;;5123031;27;8846;-75
2022/11/09 15:10:40;;;;;;;;;0.25;0.25;;;;;;;;5121991;27;8832;-75
2022/11/09 15:13:10;;;;;;;;;0.00;0.00;;;;;;;;5119051;27;8848;-75
2022/11/09 15:15:38;;;;;;;;;0.00;0.00;;;;;;;;5103703;27;8880;-76
2022/11/09 15:18:14;;;;;;;;;1.25;0.00;;;;;;;;5103527;27;8836;-74
2022/11/09 15:20:43;;;;;;;;;0.00;0.00;;;;;;;;5090150;27;8812;-75
2022/11/09 15:23:23;;;;;;;;;1.00;0.00;;;;;;;;5122385;27;8851;-75